This is the latest recevied weather packets stored in our database for station/object DG3RAP-11. If no packets are shown the sender has not sent any weather packets the latest 1 day(s).
| Time | Temp. | Humidity | Pressure | Rain* | Wind** | Luminosity | Snow |
|---|---|---|---|---|---|---|---|
| 1777997343 | 16.67° C | 74% | 1006.2 hPa | 0 mm | 0.89 m/s, 290° | - | - |
| 1777996803 | 16.67° C | 75% | 1005.4 hPa | 0 mm | 3.13 m/s, 271° | - | - |
| 1777996443 | 16.67° C | 74% | 1005.4 hPa | 0 mm | 7.15 m/s, 282° | - | - |
| 1777995903 | 17.78° C | 66% | 1004.6 hPa | 0 mm | 9.83 m/s, 283° | - | - |
| 1777995363 | 22.78° C | 38% | 1004.5 hPa | 0 mm | 1.34 m/s, 259° | - | - |
| 1777994823 | 23.33° C | 38% | 1004.5 hPa | 0 mm | 0.89 m/s, 265° | - | - |
| 1777994283 | 23.33° C | 37% | 1004.4 hPa | 0 mm | 0.89 m/s, 276° | - | - |
| 1777993743 | 24.44° C | 36% | 1004.6 hPa | 0 mm | 0.45 m/s, 259° | - | - |
| 1777993203 | 24.44° C | 35% | 1004.5 hPa | 0 mm | 0.45 m/s, 247° | - | - |
| 1777992843 | 25° C | 34% | 1004.6 hPa | 0 mm | 0 m/s | - | - |
| 1777992303 | 24.44° C | 35% | 1004.4 hPa | 0 mm | 0.89 m/s, 302° | - | - |
| 1777991763 | 23.89° C | 34% | 1004.6 hPa | 0 mm | 0 m/s | - | - |
| 1777991223 | 24.44° C | 34% | 1004.8 hPa | 0 mm | 1.34 m/s, 29° | - | - |
| 1777990683 | 25.56° C | 33% | 1005.1 hPa | 0 mm | 0 m/s | - | - |
| 1777990143 | 25° C | 32% | 1004.9 hPa | 0 mm | 0.45 m/s, 33° | - | - |
| 1777989603 | 25° C | 33% | 1005 hPa | 0 mm | 0 m/s | - | - |
| 1777989243 | 25° C | 31% | 1005.1 hPa | 0 mm | 0.45 m/s, 336° | - | - |
| 1777988703 | 25.56° C | 30% | 1005.2 hPa | 0 mm | 0 m/s | - | - |
| 1777988163 | 25.56° C | 29% | 1005.4 hPa | 0 mm | 2.24 m/s, 284° | - | - |
| 1777987623 | 26.11° C | 28% | 1005.3 hPa | 0 mm | 0.45 m/s, 280° | - | - |
| 1777987083 | 25.56° C | 28% | 1005.5 hPa | 0 mm | 0.89 m/s, 286° | - | - |
| 1777986543 | 25.56° C | 28% | 1005.7 hPa | 0 mm | 0.89 m/s, 46° | - | - |
| 1777986003 | 24.44° C | 31% | 1005.7 hPa | 0 mm | 0.89 m/s, 22° | - | - |
| 1777985643 | 25.56° C | 30% | 1005.4 hPa | 0 mm | 0.45 m/s, 308° | - | - |
| 1777985103 | 24.44° C | 31% | 1005.8 hPa | 0 mm | 1.79 m/s, 279° | - | - |
* Rain latest hour (hover to see other rain measurements)
** Current wind speed in m/s (hover to see current wind gust speed)